ENY1147 KDFW-KCLL
Flight info
| Callsign | ENY1147 |
|---|---|
| Flight time | 0h 27m |
| Altitude | 19000 |
| Route | ARDIA7 CLL |
| Aircraft | E75L/M-SDE3GILORVW/S |
Departure
| Time | 2026-05-05 02:36 |
|---|---|
| Airport | Dallas Fort Worth International Airport (KDFW) |
Arrival
| Time | 2026-05-05 03:04 |
|---|---|
| Airport | Easterwood Field (KCLL) |
| Time | Latitude | Longitude | Altitude | Speed | Heading |
|---|---|---|---|---|---|
| 2026-05-05 02:17 | 32.90752 | -97.04520 | 595 ft | 0 kts | 168° |
| 2026-05-05 02:27 | 32.90764 | -97.04523 | 594 ft | 2 kts | 168° |
| 2026-05-05 02:27 | 32.90778 | -97.04527 | 594 ft | 2 kts | 180° |
| 2026-05-05 02:28 | 32.90792 | -97.04520 | 594 ft | 2 kts | 226° |
| 2026-05-05 02:28 | 32.90797 | -97.04504 | 594 ft | 2 kts | 270° |
| 2026-05-05 02:28 | 32.90797 | -97.04497 | 594 ft | 0 kts | 281° |
| 2026-05-05 02:30 | 32.90798 | -97.04509 | 594 ft | 2 kts | 273° |
| 2026-05-05 02:30 | 32.90803 | -97.04543 | 594 ft | 6 kts | 287° |
| 2026-05-05 02:30 | 32.90834 | -97.04595 | 593 ft | 9 kts | 327° |
| 2026-05-05 02:30 | 32.90911 | -97.04596 | 592 ft | 13 kts | 8° |
| 2026-05-05 02:31 | 32.90995 | -97.04591 | 590 ft | 7 kts | 5° |
| 2026-05-05 02:31 | 32.91011 | -97.04535 | 590 ft | 8 kts | 93° |
| 2026-05-05 02:31 | 32.91010 | -97.04461 | 590 ft | 9 kts | 91° |
| 2026-05-05 02:31 | 32.91008 | -97.04372 | 590 ft | 11 kts | 87° |
| 2026-05-05 02:32 | 32.91010 | -97.04273 | 589 ft | 12 kts | 90° |
| 2026-05-05 02:32 | 32.91009 | -97.04158 | 587 ft | 14 kts | 91° |
| 2026-05-05 02:32 | 32.91008 | -97.04035 | 587 ft | 15 kts | 90° |
| 2026-05-05 02:32 | 32.91008 | -97.03901 | 586 ft | 16 kts | 90° |
| 2026-05-05 02:33 | 32.91008 | -97.03750 | 586 ft | 18 kts | 91° |
| 2026-05-05 02:33 | 32.91008 | -97.03593 | 585 ft | 19 kts | 90° |
| 2026-05-05 02:33 | 32.91008 | -97.03420 | 583 ft | 20 kts | 92° |
| 2026-05-05 02:33 | 32.91007 | -97.03285 | 582 ft | 16 kts | 89° |
| 2026-05-05 02:34 | 32.91037 | -97.03180 | 577 ft | 12 kts | 359° |
| 2026-05-05 02:34 | 32.91124 | -97.03188 | 578 ft | 12 kts | 359° |
| 2026-05-05 02:34 | 32.91217 | -97.03188 | 577 ft | 14 kts | 360° |
| 2026-05-05 02:34 | 32.91327 | -97.03187 | 575 ft | 16 kts | 0° |
| 2026-05-05 02:35 | 32.91418 | -97.03162 | 572 ft | 11 kts | 81° |
| 2026-05-05 02:35 | 32.91412 | -97.03062 | 571 ft | 13 kts | 91° |
| 2026-05-05 02:35 | 32.91358 | -97.02991 | 570 ft | 13 kts | 178° |
| 2026-05-05 02:35 | 32.91188 | -97.02992 | 571 ft | 48 kts | 179° |
| 2026-05-05 02:36 | 32.90725 | -97.02993 | 574 ft | 90 kts | 180° |
| 2026-05-05 02:36 | 32.89929 | -97.02998 | 571 ft | 137 kts | 180° |
| 2026-05-05 02:36 | 32.88907 | -97.03014 | 893 ft | 146 kts | 180° |
| 2026-05-05 02:36 | 32.87903 | -97.03020 | 1409 ft | 149 kts | 180° |
| 2026-05-05 02:37 | 32.86866 | -97.03012 | 2063 ft | 147 kts | 181° |
| 2026-05-05 02:37 | 32.85867 | -97.02990 | 2787 ft | 145 kts | 183° |
| 2026-05-05 02:37 | 32.85361 | -97.02980 | 3145 ft | 145 kts | 184° |
| 2026-05-05 02:38 | 32.84956 | -97.02973 | 3423 ft | 144 kts | 184° |
| 2026-05-05 02:38 | 32.83956 | -97.02962 | 4051 ft | 146 kts | 186° |
| 2026-05-05 02:38 | 32.82944 | -97.02959 | 4578 ft | 151 kts | 187° |
| 2026-05-05 02:39 | 32.81833 | -97.02961 | 4952 ft | 169 kts | 187° |
| 2026-05-05 02:39 | 32.80603 | -97.02965 | 5407 ft | 183 kts | 187° |
| 2026-05-05 02:39 | 32.79299 | -97.02969 | 5928 ft | 192 kts | 187° |
| 2026-05-05 02:39 | 32.77934 | -97.02975 | 6476 ft | 200 kts | 188° |
| 2026-05-05 02:40 | 32.76509 | -97.02985 | 6874 ft | 217 kts | 188° |
| 2026-05-05 02:40 | 32.74952 | -97.02994 | 6917 ft | 230 kts | 187° |
| 2026-05-05 02:40 | 32.73261 | -97.03008 | 7095 ft | 257 kts | 186° |
| 2026-05-05 02:40 | 32.71394 | -97.03008 | 7512 ft | 275 kts | 182° |
| 2026-05-05 02:41 | 32.69505 | -97.02374 | 8063 ft | 294 kts | 162° |
| 2026-05-05 02:41 | 32.67601 | -97.01398 | 8671 ft | 301 kts | 162° |
| 2026-05-05 02:41 | 32.65684 | -97.00416 | 9342 ft | 304 kts | 162° |
| 2026-05-05 02:41 | 32.63722 | -96.99411 | 9994 ft | 308 kts | 162° |
| 2026-05-05 02:42 | 32.61750 | -96.98402 | 10570 ft | 313 kts | 162° |
| 2026-05-05 02:42 | 32.59637 | -96.97774 | 10937 ft | 316 kts | 179° |
| 2026-05-05 02:42 | 32.57402 | -96.97484 | 11240 ft | 331 kts | 179° |
| 2026-05-05 02:42 | 32.55079 | -96.97186 | 11592 ft | 342 kts | 179° |
| 2026-05-05 02:43 | 32.52686 | -96.96879 | 11936 ft | 353 kts | 179° |
| 2026-05-05 02:43 | 32.50178 | -96.96557 | 12300 ft | 363 kts | 179° |
| 2026-05-05 02:43 | 32.47671 | -96.96236 | 12734 ft | 369 kts | 178° |
| 2026-05-05 02:43 | 32.45103 | -96.95907 | 13245 ft | 373 kts | 178° |
| 2026-05-05 02:44 | 32.42480 | -96.95571 | 13766 ft | 377 kts | 179° |
| 2026-05-05 02:44 | 32.39880 | -96.95239 | 14307 ft | 378 kts | 179° |
| 2026-05-05 02:44 | 32.37271 | -96.94906 | 14869 ft | 380 kts | 179° |
| 2026-05-05 02:44 | 32.34634 | -96.94570 | 15400 ft | 381 kts | 179° |
| 2026-05-05 02:45 | 32.31979 | -96.94232 | 15869 ft | 385 kts | 179° |
| 2026-05-05 02:45 | 32.29301 | -96.93891 | 16351 ft | 388 kts | 180° |
| 2026-05-05 02:45 | 32.26609 | -96.93462 | 16822 ft | 392 kts | 177° |
| 2026-05-05 02:45 | 32.23919 | -96.92991 | 17312 ft | 394 kts | 177° |
| 2026-05-05 02:46 | 32.21214 | -96.92519 | 17789 ft | 396 kts | 177° |
| 2026-05-05 02:46 | 32.18477 | -96.92042 | 18233 ft | 399 kts | 178° |
| 2026-05-05 02:46 | 32.15718 | -96.91561 | 18603 ft | 404 kts | 178° |
| 2026-05-05 02:46 | 32.12884 | -96.91069 | 18798 ft | 411 kts | 178° |
| 2026-05-05 02:47 | 32.10082 | -96.90581 | 18823 ft | 408 kts | 178° |
| 2026-05-05 02:47 | 32.07268 | -96.90092 | 18821 ft | 409 kts | 178° |
| 2026-05-05 02:47 | 32.04452 | -96.89602 | 18823 ft | 408 kts | 178° |
| 2026-05-05 02:47 | 32.01626 | -96.89112 | 18829 ft | 407 kts | 178° |
| 2026-05-05 02:48 | 31.98819 | -96.88625 | 18829 ft | 409 kts | 178° |
| 2026-05-05 02:48 | 31.96017 | -96.88139 | 18831 ft | 408 kts | 178° |
| 2026-05-05 02:48 | 31.93222 | -96.87655 | 18832 ft | 407 kts | 178° |
| 2026-05-05 02:48 | 31.90404 | -96.87167 | 18832 ft | 407 kts | 178° |
| 2026-05-05 02:49 | 31.87592 | -96.86681 | 18829 ft | 407 kts | 178° |
| 2026-05-05 02:49 | 31.84782 | -96.86195 | 18829 ft | 409 kts | 178° |
| 2026-05-05 02:49 | 31.81961 | -96.85707 | 18830 ft | 411 kts | 178° |
| 2026-05-05 02:49 | 31.79162 | -96.85223 | 18830 ft | 409 kts | 178° |
| 2026-05-05 02:50 | 31.76334 | -96.84735 | 18839 ft | 409 kts | 178° |
| 2026-05-05 02:50 | 31.73510 | -96.84248 | 18838 ft | 410 kts | 178° |
| 2026-05-05 02:50 | 31.70678 | -96.83691 | 18836 ft | 415 kts | 171° |
| 2026-05-05 02:50 | 31.67910 | -96.82678 | 18843 ft | 419 kts | 168° |
| 2026-05-05 02:51 | 31.65137 | -96.81615 | 18846 ft | 418 kts | 168° |
| 2026-05-05 02:51 | 31.62358 | -96.80553 | 18842 ft | 420 kts | 168° |
| 2026-05-05 02:51 | 31.59592 | -96.79497 | 18849 ft | 418 kts | 167° |
| 2026-05-05 02:51 | 31.56821 | -96.78438 | 18855 ft | 418 kts | 168° |
| 2026-05-05 02:52 | 31.54057 | -96.77383 | 18848 ft | 417 kts | 168° |
| 2026-05-05 02:52 | 31.51308 | -96.76335 | 18854 ft | 419 kts | 168° |
| 2026-05-05 02:52 | 31.48543 | -96.75282 | 18855 ft | 418 kts | 168° |
| 2026-05-05 02:52 | 31.45756 | -96.74221 | 18855 ft | 418 kts | 168° |
| 2026-05-05 02:53 | 31.42987 | -96.73167 | 18857 ft | 418 kts | 168° |
| 2026-05-05 02:53 | 31.40189 | -96.72103 | 18860 ft | 420 kts | 168° |
| 2026-05-05 02:53 | 31.37430 | -96.71055 | 18861 ft | 418 kts | 168° |
| 2026-05-05 02:53 | 31.34644 | -96.69996 | 18864 ft | 419 kts | 168° |
| 2026-05-05 02:54 | 31.31868 | -96.68942 | 18867 ft | 418 kts | 168° |
| 2026-05-05 02:54 | 31.29106 | -96.67896 | 18738 ft | 422 kts | 168° |
| 2026-05-05 02:54 | 31.26319 | -96.66838 | 18748 ft | 419 kts | 168° |
| 2026-05-05 02:54 | 31.23514 | -96.65775 | 18758 ft | 420 kts | 168° |
| 2026-05-05 02:55 | 31.20742 | -96.64726 | 18768 ft | 418 kts | 168° |
| 2026-05-05 02:55 | 31.17960 | -96.63673 | 18776 ft | 422 kts | 168° |
| 2026-05-05 02:55 | 31.15198 | -96.62629 | 18789 ft | 421 kts | 168° |
| 2026-05-05 02:55 | 31.12410 | -96.61573 | 18765 ft | 422 kts | 167° |
| 2026-05-05 02:56 | 31.09718 | -96.60061 | 17427 ft | 441 kts | 146° |
| 2026-05-05 02:56 | 31.07458 | -96.57761 | 16167 ft | 431 kts | 147° |
| 2026-05-05 02:56 | 31.04955 | -96.55965 | 14938 ft | 416 kts | 154° |
| 2026-05-05 02:56 | 31.02470 | -96.54404 | 13728 ft | 406 kts | 155° |
| 2026-05-05 02:57 | 31.00021 | -96.52911 | 12541 ft | 393 kts | 155° |
| 2026-05-05 02:57 | 30.97640 | -96.51475 | 11379 ft | 379 kts | 155° |
| 2026-05-05 02:57 | 30.95353 | -96.50101 | 10248 ft | 364 kts | 156° |
| 2026-05-05 02:57 | 30.93166 | -96.48790 | 9190 ft | 350 kts | 156° |
| 2026-05-05 02:58 | 30.91067 | -96.47532 | 8163 ft | 337 kts | 156° |
| 2026-05-05 02:58 | 30.89018 | -96.46305 | 7156 ft | 324 kts | 156° |
| 2026-05-05 02:58 | 30.87080 | -96.45145 | 6207 ft | 312 kts | 156° |
| 2026-05-05 02:58 | 30.85197 | -96.44019 | 5335 ft | 298 kts | 156° |
| 2026-05-05 02:59 | 30.83423 | -96.42957 | 4912 ft | 276 kts | 156° |
| 2026-05-05 02:59 | 30.81744 | -96.41955 | 4621 ft | 267 kts | 156° |
| 2026-05-05 02:59 | 30.80109 | -96.41029 | 4298 ft | 258 kts | 166° |
| 2026-05-05 02:59 | 30.78380 | -96.40566 | 4011 ft | 253 kts | 172° |
| 2026-05-05 03:00 | 30.76655 | -96.40166 | 3682 ft | 251 kts | 172° |
| 2026-05-05 03:00 | 30.74942 | -96.39773 | 3353 ft | 251 kts | 172° |
| 2026-05-05 03:00 | 30.73240 | -96.39382 | 3026 ft | 248 kts | 171° |
| 2026-05-05 03:00 | 30.71544 | -96.38982 | 2647 ft | 244 kts | 171° |
| 2026-05-05 03:01 | 30.69957 | -96.38621 | 2312 ft | 226 kts | 171° |
| 2026-05-05 03:01 | 30.68461 | -96.38281 | 2032 ft | 207 kts | 171° |
| 2026-05-05 03:01 | 30.67157 | -96.37985 | 1774 ft | 175 kts | 171° |
| 2026-05-05 03:01 | 30.66059 | -96.37734 | 1649 ft | 145 kts | 171° |
| 2026-05-05 03:02 | 30.65118 | -96.37521 | 1409 ft | 132 kts | 171° |
| 2026-05-05 03:02 | 30.64254 | -96.37325 | 1203 ft | 121 kts | 171° |
| 2026-05-05 03:02 | 30.63427 | -96.37139 | 1061 ft | 121 kts | 171° |
| 2026-05-05 03:02 | 30.62597 | -96.36964 | 908 ft | 123 kts | 171° |
| 2026-05-05 03:03 | 30.61741 | -96.36747 | 749 ft | 125 kts | 169° |
| 2026-05-05 03:03 | 30.60881 | -96.36568 | 588 ft | 128 kts | 169° |
| 2026-05-05 03:03 | 30.59993 | -96.36360 | 398 ft | 130 kts | 168° |
| 2026-05-05 03:03 | 30.59131 | -96.36165 | 304 ft | 118 kts | 168° |
| 2026-05-05 03:04 | 30.58521 | -96.36025 | 298 ft | 52 kts | 168° |
| 2026-05-05 03:04 | 30.58280 | -96.35974 | 297 ft | 11 kts | 198° |
| 2026-05-05 03:04 | 30.58271 | -96.36041 | 298 ft | 8 kts | 262° |
| 2026-05-05 03:04 | 30.58284 | -96.36097 | 298 ft | 7 kts | 328° |
| 2026-05-05 03:05 | 30.58339 | -96.36111 | 298 ft | 8 kts | 351° |
| 2026-05-05 03:05 | 30.58402 | -96.36127 | 298 ft | 10 kts | 347° |
| 2026-05-05 03:05 | 30.58487 | -96.36148 | 298 ft | 14 kts | 347° |
| 2026-05-05 03:05 | 30.58596 | -96.36170 | 299 ft | 16 kts | 351° |
| 2026-05-05 03:06 | 30.58705 | -96.36194 | 301 ft | 15 kts | 347° |
| 2026-05-05 03:06 | 30.58813 | -96.36221 | 302 ft | 16 kts | 350° |
| 2026-05-05 03:06 | 30.58924 | -96.36245 | 303 ft | 16 kts | 349° |
| 2026-05-05 03:06 | 30.59033 | -96.36281 | 304 ft | 15 kts | 334° |
| 2026-05-05 03:07 | 30.59117 | -96.36352 | 307 ft | 14 kts | 319° |
| 2026-05-05 03:07 | 30.59194 | -96.36428 | 308 ft | 14 kts | 319° |
| 2026-05-05 03:07 | 30.59269 | -96.36503 | 310 ft | 14 kts | 319° |
| 2026-05-05 03:07 | 30.59318 | -96.36575 | 311 ft | 4 kts | 287° |
| 2026-05-05 03:08 | 30.59332 | -96.36594 | 311 ft | 0 kts | 324° |